createdAt,value
2023-03-02T02:48:33.795Z,100.00
2023-03-02T02:51:50.639Z,100.00
2023-03-02T02:54:56.674Z,100.00
2023-03-02T02:58:01.308Z,100.00
2023-03-02T03:01:04.671Z,100.00
2023-03-02T03:04:08.709Z,100.00
2023-03-02T03:07:17.170Z,100.00
2023-03-02T03:10:26.706Z,100.00
2023-03-02T03:13:29.411Z,100.00
2023-03-02T03:16:34.444Z,100.00
2023-03-02T03:19:39.824Z,100.00
2023-03-02T03:22:42.424Z,100.00
2023-03-02T03:25:45.063Z,100.00
2023-03-02T03:28:47.781Z,100.00
2023-03-02T03:31:50.767Z,100.00
2023-03-02T03:34:54.697Z,100.00
2023-03-02T03:37:57.321Z,100.00
2023-03-02T03:40:59.913Z,100.00
2023-03-02T03:44:02.970Z,100.00
2023-03-02T03:47:05.732Z,100.00
2023-03-02T03:50:10.961Z,100.00
2023-03-02T03:53:13.565Z,100.00
2023-03-02T03:56:16.163Z,100.00
2023-03-02T03:59:21.356Z,100.00
2023-03-02T04:02:24.175Z,100.00
2023-03-02T04:05:30.113Z,99.89
2023-03-02T04:08:33.915Z,99.63
2023-03-02T04:11:39.416Z,99.53
2023-03-02T04:14:42.066Z,100.00
2023-03-02T04:17:45.861Z,99.53
2023-03-02T04:20:49.805Z,99.36
2023-03-02T04:23:52.483Z,100.00
2023-03-02T04:26:55.110Z,100.00
2023-03-02T04:29:57.702Z,100.00
2023-03-02T04:33:00.761Z,100.00
2023-03-02T04:36:05.199Z,100.00
2023-03-02T04:39:08.527Z,100.00
2023-03-02T04:42:11.123Z,100.00
2023-03-02T04:45:14.482Z,100.00
2023-03-02T04:48:17.080Z,100.00
2023-03-02T04:51:25.055Z,100.00
2023-03-02T04:54:28.344Z,100.00
2023-03-02T04:57:31.024Z,100.00
2023-03-02T05:00:34.212Z,100.00
2023-03-02T05:03:36.866Z,99.72
2023-03-02T05:06:40.931Z,100.00
2023-03-02T05:09:43.672Z,100.00
2023-03-02T05:12:58.027Z,100.00
2023-03-02T05:16:01.547Z,100.00
2023-03-02T05:19:06.496Z,100.00
2023-03-02T05:22:10.558Z,100.00
2023-03-02T05:25:13.511Z,100.00
2023-03-02T05:28:16.132Z,100.00
2023-03-02T05:31:21.829Z,100.00
2023-03-02T05:34:24.457Z,100.00
2023-03-02T05:37:28.497Z,100.00
2023-03-02T05:40:31.099Z,100.00
2023-03-02T05:43:33.866Z,100.00
2023-03-02T05:46:37.025Z,100.00
2023-03-02T05:49:39.647Z,100.00
2023-03-02T05:52:45.308Z,100.00
2023-03-02T05:55:48.061Z,100.00
2023-03-02T05:58:50.728Z,100.00
2023-03-02T06:01:58.660Z,100.00
2023-03-02T06:05:01.460Z,100.00
2023-03-02T06:08:06.224Z,100.00
2023-03-02T06:11:09.728Z,100.00
2023-03-02T06:14:12.341Z,100.00
2023-03-02T06:17:14.912Z,100.00
2023-03-02T06:20:19.140Z,100.00
2023-03-02T06:23:23.085Z,100.00
2023-03-02T06:26:25.831Z,99.99
2023-03-02T06:29:28.413Z,100.00
2023-03-02T06:32:34.084Z,100.00
2023-03-02T06:35:36.936Z,100.00
2023-03-02T06:38:40.932Z,100.00
2023-03-02T06:41:43.684Z,100.00
2023-03-02T06:44:46.277Z,100.00
2023-03-02T06:47:48.841Z,100.00
2023-03-02T06:50:51.429Z,100.00
2023-03-02T06:53:55.385Z,100.00
2023-03-02T06:56:57.993Z,100.00
2023-03-02T07:00:01.928Z,100.00
2023-03-02T07:03:04.523Z,100.00
2023-03-02T07:06:07.567Z,100.00
2023-03-02T07:09:11.492Z,100.00
2023-03-02T07:12:14.058Z,100.00
2023-03-02T07:15:17.861Z,100.00
2023-03-02T07:18:20.415Z,100.00
2023-03-02T07:21:23.045Z,100.00
2023-03-02T07:24:27.223Z,100.00
2023-03-02T07:27:29.821Z,100.00
2023-03-02T07:30:32.441Z,100.00
2023-03-02T07:33:35.277Z,100.00
2023-03-02T07:36:37.853Z,100.00
2023-03-02T07:39:41.825Z,100.00
2023-03-02T07:42:44.408Z,100.00
2023-03-02T07:45:47.562Z,100.00
2023-03-02T07:48:50.270Z,100.00
2023-03-02T07:51:53.164Z,100.00
2023-03-02T07:54:57.224Z,100.00
2023-03-02T07:57:59.829Z,100.00
2023-03-02T08:01:02.484Z,100.00
2023-03-02T08:04:05.460Z,100.00
2023-03-02T08:07:08.215Z,100.00
2023-03-02T08:10:13.260Z,100.00
2023-03-02T08:13:15.829Z,100.00
2023-03-02T08:16:18.548Z,100.00
2023-03-02T08:19:21.294Z,100.00
2023-03-02T08:22:23.897Z,100.00
2023-03-02T08:25:28.047Z,100.00
2023-03-02T08:28:30.632Z,100.00
2023-03-02T08:31:33.906Z,100.00
2023-03-02T08:34:37.186Z,100.00
2023-03-02T08:37:39.803Z,100.00
2023-03-02T08:40:43.746Z,100.00
2023-03-02T08:43:47.025Z,100.00
2023-03-02T08:46:50.124Z,100.00
2023-03-02T08:49:52.704Z,100.00
2023-03-02T08:52:55.278Z,100.00
2023-03-02T08:55:59.268Z,100.00
2023-03-02T08:59:04.149Z,100.00
2023-03-02T09:02:06.884Z,100.00
2023-03-02T09:05:10.360Z,100.00
2023-03-02T09:08:14.125Z,100.00
2023-03-02T09:11:18.526Z,100.00
2023-03-02T09:14:21.413Z,100.00
2023-03-02T09:17:24.016Z,100.00
2023-03-02T09:20:26.827Z,100.00
2023-03-02T09:23:30.717Z,100.00
2023-03-02T09:26:35.013Z,100.00
2023-03-02T09:29:37.617Z,100.00
2023-03-02T09:32:40.506Z,100.00
2023-03-02T09:35:43.369Z,100.00
2023-03-02T09:38:45.953Z,100.00
2023-03-02T09:42:41.808Z,100.00
2023-03-02T09:46:06.180Z,100.00
2023-03-02T09:49:22.400Z,100.00
2023-03-02T09:52:31.990Z,100.00
2023-03-02T09:55:37.312Z,100.00
2023-03-02T09:58:42.080Z,100.00
2023-03-02T10:01:52.162Z,100.00
2023-03-02T10:04:57.099Z,100.00
2023-03-02T10:07:59.716Z,100.00
2023-03-02T10:11:11.230Z,100.00
2023-03-02T10:14:19.060Z,100.00
2023-03-02T10:17:39.542Z,100.00
2023-03-02T10:20:48.663Z,100.00
2023-03-02T10:23:57.198Z,100.00
2023-03-02T10:27:11.606Z,100.00
2023-03-02T10:30:21.061Z,99.44
2023-03-02T10:33:25.316Z,99.62
2023-03-02T10:36:30.104Z,100.00
2023-03-02T10:39:32.680Z,100.00
2023-03-02T10:42:40.241Z,100.00
2023-03-02T10:45:42.848Z,100.00
2023-03-02T10:48:51.721Z,100.00
2023-03-02T10:51:59.641Z,99.71
2023-03-02T10:55:04.040Z,99.62
2023-03-02T10:58:08.711Z,99.84
2023-03-02T11:01:18.213Z,100.00
2023-03-02T11:04:22.399Z,99.97
2023-03-02T11:07:26.776Z,100.00
2023-03-02T11:10:31.896Z,99.96
2023-03-02T11:13:36.674Z,100.00
2023-03-02T11:16:39.378Z,100.00
2023-03-02T11:19:43.869Z,100.00
2023-03-02T11:22:53.396Z,100.00
2023-03-02T11:25:59.494Z,99.97
2023-03-02T11:29:05.685Z,99.93
2023-03-02T11:32:14.225Z,100.00
2023-03-02T11:35:30.270Z,100.00
2023-03-02T11:38:38.935Z,100.00
2023-03-02T11:41:42.238Z,100.00
2023-03-02T11:44:45.207Z,100.00
2023-03-02T11:48:02.028Z,100.00
2023-03-02T11:51:13.047Z,100.00
2023-03-02T11:54:28.868Z,100.00
2023-03-02T11:57:35.243Z,100.00
2023-03-02T12:00:39.820Z,100.00
2023-03-02T12:03:44.809Z,99.98
2023-03-02T12:06:48.757Z,100.00
2023-03-02T12:10:00.415Z,100.00
2023-03-02T12:13:19.060Z,100.00
2023-03-02T12:16:24.425Z,100.00
2023-03-02T12:19:29.272Z,100.00
2023-03-02T12:22:33.289Z,100.00
2023-03-02T12:25:51.109Z,100.00
2023-03-02T12:29:00.223Z,100.00
2023-03-02T12:32:13.601Z,100.00
2023-03-02T12:35:20.397Z,100.00
2023-03-02T12:38:30.776Z,100.00
2023-03-02T12:41:49.019Z,100.00
2023-03-02T12:44:59.242Z,100.00
2023-03-02T12:48:06.126Z,100.00
2023-03-02T12:51:18.259Z,100.00
2023-03-02T12:54:24.604Z,100.00
2023-03-02T12:57:27.996Z,100.00
2023-03-02T13:00:32.846Z,100.00
2023-03-02T13:03:35.449Z,100.00
2023-03-02T13:06:40.351Z,100.00
2023-03-02T13:09:55.669Z,100.00
2023-03-02T13:13:00.844Z,100.00
2023-03-02T13:16:08.109Z,100.00
2023-03-02T13:19:16.442Z,100.00
2023-03-02T13:22:21.238Z,100.00
2023-03-02T13:25:28.379Z,100.00
2023-03-02T13:28:33.862Z,100.00
2023-03-02T13:31:36.648Z,100.00
2023-03-02T13:34:39.329Z,100.00
2023-03-02T13:37:44.373Z,100.00
2023-03-02T13:40:51.289Z,100.00
2023-03-02T13:43:53.920Z,99.66
2023-03-02T13:46:57.118Z,99.23
2023-03-02T13:50:08.151Z,100.00
2023-03-02T13:53:12.035Z,100.00
2023-03-02T13:56:18.483Z,100.00
2023-03-02T13:59:23.010Z,100.00
2023-03-02T14:02:28.028Z,100.00
2023-03-02T14:05:33.242Z,100.00
2023-03-02T14:08:36.026Z,99.61
2023-03-02T14:11:43.008Z,100.00
2023-03-02T14:14:45.753Z,99.75
2023-03-02T14:17:49.221Z,100.00
2023-03-02T14:20:51.811Z,98.46
2023-03-02T14:23:54.928Z,97.82
2023-03-02T14:26:59.082Z,100.00
2023-03-02T14:30:01.844Z,99.00
2023-03-02T14:33:04.441Z,98.68
2023-03-02T14:36:07.892Z,98.27
2023-03-02T14:39:20.664Z,97.65
2023-03-02T14:42:24.833Z,97.59
2023-03-02T14:45:28.856Z,95.56
2023-03-02T14:48:33.214Z,96.43
2023-03-02T14:51:37.389Z,95.30
2023-03-02T14:54:44.648Z,97.16
2023-03-02T14:57:52.963Z,100.00
2023-03-02T15:00:55.679Z,100.00
2023-03-02T15:03:58.262Z,98.40
2023-03-02T15:07:00.843Z,97.24
2023-03-02T15:10:03.461Z,97.30
2023-03-02T15:13:07.385Z,96.87
2023-03-02T15:16:12.022Z,95.59
2023-03-02T15:19:14.834Z,97.38
2023-03-02T15:22:17.737Z,97.23
2023-03-02T15:25:20.321Z,97.19
2023-03-02T15:28:24.241Z,98.74
2023-03-02T15:31:28.086Z,99.07
2023-03-02T15:34:30.756Z,98.13
2023-03-02T15:37:33.736Z,96.92
2023-03-02T15:40:36.984Z,96.90
2023-03-02T15:43:40.992Z,97.24
2023-03-02T15:46:43.627Z,98.67
2023-03-02T15:49:46.229Z,98.53
2023-03-02T15:52:48.856Z,98.04
2023-03-02T15:55:51.444Z,97.27
2023-03-02T15:58:55.357Z,99.37
2023-03-02T16:01:59.608Z,97.69
2023-03-02T16:05:02.367Z,98.93
2023-03-02T16:08:05.387Z,98.49
2023-03-02T16:11:09.646Z,98.86
2023-03-02T16:14:15.565Z,97.42
2023-03-02T16:17:19.029Z,97.73
2023-03-02T16:20:21.700Z,98.29
2023-03-02T16:23:24.366Z,97.20
2023-03-02T16:26:26.957Z,96.96
2023-03-02T16:29:31.026Z,98.58
2023-03-02T16:32:34.090Z,99.64
2023-03-02T16:35:38.439Z,98.54
2023-03-02T16:38:41.714Z,98.11
2023-03-02T16:41:46.084Z,98.55
2023-03-02T16:44:51.394Z,100.00
2023-03-02T16:47:54.303Z,99.48
2023-03-02T16:50:57.658Z,99.65
2023-03-02T16:54:00.331Z,99.41
2023-03-02T16:57:02.985Z,99.96
2023-03-02T17:00:08.467Z,99.88
2023-03-02T17:03:11.051Z,100.00
2023-03-02T17:06:16.627Z,100.00
2023-03-02T17:09:19.240Z,100.00
2023-03-02T17:12:21.820Z,99.88
2023-03-02T17:15:25.787Z,100.00
2023-03-02T17:18:29.268Z,99.10
2023-03-02T17:21:31.856Z,98.69
2023-03-02T17:24:34.599Z,98.75
2023-03-02T17:27:37.194Z,99.54
2023-03-02T17:30:41.278Z,99.90
2023-03-02T17:33:43.894Z,99.26
2023-03-02T17:36:46.508Z,99.62
2023-03-02T17:39:49.981Z,99.77
2023-03-02T17:42:54.942Z,100.00
2023-03-02T17:46:09.173Z,99.33
2023-03-02T17:49:12.029Z,99.54
2023-03-02T17:52:16.411Z,99.67
2023-03-02T17:55:19.141Z,98.93
2023-03-02T17:58:21.747Z,100.00
2023-03-02T18:01:26.218Z,100.00
2023-03-02T18:04:28.963Z,99.86
2023-03-02T18:07:31.557Z,100.00
2023-03-02T18:10:34.153Z,99.40
2023-03-02T18:13:37.411Z,100.00
2023-03-02T18:16:41.386Z,99.37
2023-03-02T18:19:45.450Z,98.90
2023-03-02T18:22:48.043Z,99.08
2023-03-02T18:25:50.730Z,100.00
2023-03-02T18:28:53.360Z,99.26
2023-03-02T18:31:57.369Z,99.16
2023-03-02T18:35:00.138Z,99.30
2023-03-02T18:38:02.860Z,98.27
2023-03-02T18:41:07.414Z,99.72
2023-03-02T18:44:10.520Z,98.81
2023-03-02T18:47:17.856Z,98.10
2023-03-02T18:50:21.442Z,98.38
2023-03-02T18:53:24.515Z,99.65
2023-03-02T18:56:27.525Z,99.60
2023-03-02T18:59:30.182Z,99.68
2023-03-02T19:02:34.862Z,99.33
2023-03-02T19:05:37.490Z,98.66
2023-03-02T19:08:40.200Z,99.00
2023-03-02T19:11:42.780Z,99.61
2023-03-02T19:14:45.426Z,99.97
2023-03-02T19:17:51.649Z,99.59
2023-03-02T19:20:55.632Z,99.57
2023-03-02T19:23:58.362Z,99.75
2023-03-02T19:27:00.974Z,99.54
2023-03-02T19:30:03.631Z,98.99
2023-03-02T19:33:09.230Z,98.96
2023-03-02T19:36:12.139Z,99.89
2023-03-02T19:39:14.810Z,99.06
2023-03-02T19:42:17.773Z,99.87
2023-03-02T19:45:23.506Z,100.00
2023-03-02T19:48:29.637Z,100.00
2023-03-02T19:51:32.243Z,99.76
2023-03-02T19:54:34.820Z,99.68
2023-03-02T19:57:38.006Z,99.86
2023-03-02T20:00:40.608Z,99.64
2023-03-02T20:03:46.167Z,99.04
2023-03-02T20:06:48.907Z,99.87
2023-03-02T20:09:51.471Z,99.26
2023-03-02T20:12:54.071Z,99.39
2023-03-02T20:15:56.658Z,99.15
2023-03-02T20:19:01.861Z,99.29
2023-03-02T20:22:06.839Z,100.00
2023-03-02T20:25:10.075Z,98.99
2023-03-02T20:28:14.077Z,98.62
2023-03-02T20:31:17.463Z,99.55
2023-03-02T20:34:21.816Z,99.71
2023-03-02T20:37:25.978Z,99.65
2023-03-02T20:40:29.206Z,98.93
2023-03-02T20:43:31.869Z,99.18
2023-03-02T20:46:36.870Z,99.74
2023-03-02T20:49:41.158Z,98.17
2023-03-02T20:52:43.873Z,98.57
2023-03-02T20:55:46.599Z,98.51
2023-03-02T20:58:50.367Z,98.41
2023-03-02T21:01:53.798Z,98.49
2023-03-02T21:04:57.788Z,99.20
2023-03-02T21:08:01.339Z,98.67
2023-03-02T21:11:03.971Z,98.85
2023-03-02T21:14:06.676Z,98.30
2023-03-02T21:17:09.922Z,97.90
2023-03-02T21:20:18.377Z,98.12
2023-03-02T21:23:21.073Z,97.96
2023-03-02T21:26:23.719Z,98.17
2023-03-02T21:29:27.315Z,97.96
2023-03-02T21:32:30.055Z,97.85
2023-03-02T21:35:34.128Z,98.31
2023-03-02T21:38:36.720Z,97.87
2023-03-02T21:41:40.178Z,97.96
2023-03-02T21:44:42.820Z,97.53
2023-03-02T21:47:45.999Z,97.43
2023-03-02T21:50:49.978Z,97.27
2023-03-02T21:53:53.489Z,97.98
2023-03-02T21:56:56.074Z,98.51
2023-03-02T21:59:58.773Z,97.57
2023-03-02T22:03:02.574Z,98.06
2023-03-02T22:06:07.021Z,97.96
2023-03-02T22:09:09.629Z,98.02
2023-03-02T22:12:13.993Z,97.62
2023-03-02T22:15:16.829Z,98.36
2023-03-02T22:18:21.380Z,98.29
2023-03-02T22:21:35.043Z,98.89
2023-03-02T22:24:40.482Z,98.22
2023-03-02T22:27:43.556Z,98.38
2023-03-02T22:30:46.461Z,98.34
2023-03-02T22:33:49.448Z,97.55
2023-03-02T22:36:57.509Z,98.94
2023-03-02T22:40:03.556Z,98.75
2023-03-02T22:43:15.857Z,99.60
2023-03-02T22:46:21.627Z,99.45
2023-03-02T22:49:24.227Z,98.94
